Time;durP1;ratioP1;P1;durP2;ratioP2;P2;SDS_P1;SDS_P2;PMS_P1;PMS_P2;Temp;Humidity;BMP_temperature;BMP_pressure;BME280_temperature;BME280_humidity;BME280_pressure;Samples;Min_cycle;Max_cycle;Signal;HPM_P1;HPM_P2
2023/09/14 00:00:33;;;;;;;7.20;6.10;;;16.50;86.30;;;;;;5048740;28;20238;-75
2023/09/14 00:03:00;;;;;;;6.93;6.10;;;16.50;85.90;;;;;;5047614;28;20226;-73
2023/09/14 00:05:25;;;;;;;10.13;7.30;;;16.50;85.40;;;;;;5048680;28;20167;-74
2023/09/14 00:07:51;;;;;;;7.60;5.70;;;16.40;84.80;;;;;;5048488;28;20426;-75
2023/09/14 00:10:19;;;;;;;9.13;8.00;;;16.40;85.10;;;;;;5047562;28;20176;-74
2023/09/14 00:12:45;;;;;;;7.87;6.47;;;16.30;84.80;;;;;;5045109;28;20187;-75
2023/09/14 00:15:10;;;;;;;6.17;5.57;;;16.30;85.90;;;;;;5049358;28;20428;-75
2023/09/14 00:17:36;;;;;;;7.23;5.90;;;16.30;86.90;;;;;;5047706;28;20227;-73
2023/09/14 00:20:02;;;;;;;7.93;6.97;;;16.40;87.60;;;;;;5048239;28;20623;-71
2023/09/14 00:22:28;;;;;;;9.37;7.97;;;16.40;87.20;;;;;;5045699;28;20237;-71
2023/09/14 00:24:53;;;;;;;12.50;7.17;;;16.40;87.30;;;;;;5043807;28;20430;-71
2023/09/14 00:27:19;;;;;;;7.87;7.07;;;16.50;87.30;;;;;;5048608;28;20717;-74
2023/09/14 00:29:47;;;;;;;8.40;7.60;;;16.50;87.40;;;;;;5047801;28;20213;-73
2023/09/14 00:32:13;;;;;;;8.10;6.70;;;16.80;86.40;;;;;;5047044;28;20179;-74
2023/09/14 00:34:38;;;;;;;9.67;7.13;;;16.60;86.00;;;;;;5047136;28;20561;-74
2023/09/14 00:37:04;;;;;;;8.00;6.70;;;16.80;85.80;;;;;;5047674;28;20203;-74
2023/09/14 00:39:30;;;;;;;6.80;5.53;;;16.70;84.30;;;;;;5050028;28;20258;-73
2023/09/14 00:41:56;;;;;;;8.00;7.20;;;16.80;84.80;;;;;;5049854;28;20178;-73
2023/09/14 00:44:21;;;;;;;7.60;5.90;;;16.80;83.00;;;;;;5052195;28;20532;-74
2023/09/14 00:46:47;;;;;;;7.57;6.77;;;16.80;83.90;;;;;;5046671;28;20182;-74
2023/09/14 00:49:13;;;;;;;7.80;6.23;;;16.80;84.00;;;;;;5048187;28;20218;-74
2023/09/14 00:51:39;;;;;;;10.73;6.87;;;16.90;84.40;;;;;;5047089;28;20489;-73
2023/09/14 00:54:05;;;;;;;8.40;6.43;;;16.90;84.10;;;;;;5041906;28;20415;-74
2023/09/14 00:56:31;;;;;;;11.37;8.37;;;16.90;82.80;;;;;;5043143;28;20183;-74
2023/09/14 00:58:57;;;;;;;10.00;6.53;;;16.80;81.60;;;;;;5046525;28;20499;-74
2023/09/14 01:01:23;;;;;;;9.47;7.37;;;16.80;82.00;;;;;;5045545;28;20426;-73
2023/09/14 01:03:49;;;;;;;9.87;7.00;;;16.90;81.40;;;;;;5045534;28;20461;-74
2023/09/14 01:06:14;;;;;;;14.27;8.83;;;16.90;79.00;;;;;;5043193;28;20186;-74
2023/09/14 01:08:40;;;;;;;9.03;8.10;;;17.10;78.10;;;;;;5042464;28;20533;-74
2023/09/14 01:11:06;;;;;;;8.77;7.40;;;16.80;73.60;;;;;;5044382;28;20352;-75
2023/09/14 01:13:35;;;;;;;8.40;7.10;;;16.80;73.90;;;;;;5045431;28;20217;-75
2023/09/14 01:16:26;;;;;;;9.43;7.57;;;16.80;73.90;;;;;;5045739;28;20797;-74
2023/09/14 01:19:00;;;;;;;11.40;7.80;;;16.80;74.20;;;;;;5038881;28;21269;-75
2023/09/14 01:21:59;;;;;;;12.20;8.23;;;16.80;70.90;;;;;;5045874;28;20563;-75
2023/09/14 01:24:46;;;;;;;9.80;8.03;;;16.80;71.60;;;;;;5029780;28;21069;-74
2023/09/14 01:27:12;;;;;;;11.63;7.70;;;16.80;71.50;;;;;;5046260;28;20458;-74
2023/09/14 01:29:40;;;;;;;9.03;6.77;;;16.80;68.20;;;;;;5044707;28;20433;-74
2023/09/14 01:32:06;;;;;;;8.23;7.33;;;16.70;68.30;;;;;;5043890;28;20434;-74
2023/09/14 01:34:32;;;;;;;8.43;7.63;;;16.70;69.40;;;;;;5046687;28;20421;-74
2023/09/14 01:36:58;;;;;;;12.20;8.10;;;16.80;71.00;;;;;;5048203;28;20271;-74
2023/09/14 01:39:25;;;;;;;8.17;7.10;;;16.90;71.40;;;;;;5048720;28;20428;-73
2023/09/14 01:41:54;;;;;;;9.00;7.70;;;16.90;71.10;;;;;;5046118;28;20448;-74
2023/09/14 01:44:25;;;;;;;10.83;8.47;;;16.90;70.50;;;;;;5045269;28;20501;-74
2023/09/14 01:46:51;;;;;;;8.83;7.87;;;16.90;69.60;;;;;;5046843;28;20414;-75
2023/09/14 01:49:17;;;;;;;8.70;7.80;;;16.90;70.20;;;;;;5048328;28;20461;-74
2023/09/14 01:51:42;;;;;;;7.80;6.40;;;17.00;70.20;;;;;;5047550;28;20426;-74
2023/09/14 01:54:08;;;;;;;8.67;7.70;;;17.00;69.80;;;;;;5049840;28;20213;-75
2023/09/14 01:56:33;;;;;;;11.60;9.23;;;16.90;70.40;;;;;;5049443;28;20723;-73
2023/09/14 01:58:59;;;;;;;9.00;7.40;;;17.00;69.50;;;;;;5013264;28;20261;-72
2023/09/14 02:01:24;;;;;;;10.73;8.93;;;16.90;69.00;;;;;;5013517;28;20216;-72
2023/09/14 02:03:50;;;;;;;10.87;8.90;;;16.90;68.90;;;;;;5031046;28;20215;-72
2023/09/14 02:06:15;;;;;;;9.97;8.97;;;16.80;68.20;;;;;;5031347;28;20651;-72
2023/09/14 02:08:41;;;;;;;12.50;8.87;;;16.70;69.50;;;;;;5031029;28;20217;-72
2023/09/14 02:11:06;;;;;;;9.63;8.70;;;16.70;71.40;;;;;;5030749;28;20213;-72
2023/09/14 02:13:34;;;;;;;8.53;7.67;;;16.70;71.40;;;;;;5031261;28;20642;-72
2023/09/14 02:16:00;;;;;;;11.83;8.60;;;16.70;72.00;;;;;;5031310;28;20201;-72
2023/09/14 02:18:26;;;;;;;11.87;8.57;;;16.70;72.60;;;;;;5031276;28;20445;-73
2023/09/14 02:20:51;;;;;;;14.90;10.10;;;16.70;71.60;;;;;;5030656;28;20179;-72
2023/09/14 02:23:18;;;;;;;12.17;8.83;;;16.70;71.30;;;;;;5031153;28;20616;-72
2023/09/14 02:25:44;;;;;;;11.23;9.13;;;16.70;70.00;;;;;;5031139;28;20258;-72
2023/09/14 02:28:10;;;;;;;10.87;8.70;;;16.70;71.60;;;;;;5031390;28;20971;-72
2023/09/14 02:30:40;;;;;;;11.67;9.53;;;16.70;71.20;;;;;;5031255;28;20445;-72
2023/09/14 02:33:08;;;;;;;11.20;9.43;;;16.70;71.40;;;;;;5031109;28;20414;-72
2023/09/14 02:35:39;;;;;;;12.93;10.97;;;16.70;70.40;;;;;;5031339;28;20425;-72
2023/09/14 02:38:04;;;;;;;12.67;9.67;;;16.60;70.70;;;;;;5031144;28;20442;-73
2023/09/14 02:40:30;;;;;;;13.87;9.80;;;16.60;69.20;;;;;;5031257;28;20435;-73
2023/09/14 02:42:56;;;;;;;14.57;9.70;;;16.70;68.30;;;;;;5034900;28;20241;-73
2023/09/14 02:45:22;;;;;;;11.67;8.63;;;16.70;69.20;;;;;;5035187;28;20450;-71
2023/09/14 02:47:47;;;;;;;9.43;8.53;;;16.80;69.80;;;;;;5034965;28;20726;-74
2023/09/14 02:50:13;;;;;;;15.57;10.20;;;16.80;69.50;;;;;;5035226;28;20207;-72
2023/09/14 02:52:38;;;;;;;12.83;10.00;;;16.80;70.70;;;;;;5035098;28;20172;-72
2023/09/14 02:55:04;;;;;;;10.13;8.17;;;16.80;67.80;;;;;;5035036;28;20194;-71
2023/09/14 02:57:30;;;;;;;11.83;10.23;;;16.70;68.70;;;;;;5034809;28;20218;-71
2023/09/14 02:59:55;;;;;;;16.83;10.80;;;16.70;67.70;;;;;;5034802;28;20666;-72
2023/09/14 03:02:22;;;;;;;13.27;11.20;;;16.70;68.40;;;;;;5035009;28;20310;-72
2023/09/14 03:04:48;;;;;;;15.43;11.70;;;16.70;68.30;;;;;;5035373;28;20627;-72
2023/09/14 03:07:14;;;;;;;11.50;9.97;;;16.70;67.00;;;;;;5034607;28;20502;-72
2023/09/14 03:09:40;;;;;;;14.80;11.60;;;16.70;68.40;;;;;;5034786;28;20171;-72
2023/09/14 03:12:06;;;;;;;15.67;9.50;;;16.60;67.40;;;;;;5034698;28;20492;-72
2023/09/14 03:14:31;;;;;;;16.60;11.97;;;16.60;67.40;;;;;;5035325;28;20589;-73
2023/09/14 03:16:57;;;;;;;12.80;11.20;;;16.70;67.50;;;;;;5033813;28;20461;-73
2023/09/14 03:19:23;;;;;;;12.30;10.40;;;16.60;66.90;;;;;;5034431;28;20249;-72
2023/09/14 03:21:49;;;;;;;11.23;9.07;;;16.60;65.50;;;;;;5034375;28;20410;-72
2023/09/14 03:24:15;;;;;;;13.33;10.70;;;16.60;66.40;;;;;;5034247;28;20967;-72
2023/09/14 03:26:40;;;;;;;12.90;8.90;;;16.60;67.00;;;;;;5034302;28;20278;-72
2023/09/14 03:29:06;;;;;;;12.40;11.10;;;16.60;67.50;;;;;;5034550;28;20254;-72
2023/09/14 03:31:31;;;;;;;12.70;10.43;;;16.60;67.40;;;;;;5034336;28;20259;-71
2023/09/14 03:33:57;;;;;;;13.60;10.57;;;16.60;67.40;;;;;;5034095;28;20207;-70
2023/09/14 03:36:22;;;;;;;12.73;10.30;;;16.60;67.40;;;;;;5034275;28;20186;-70
2023/09/14 03:38:48;;;;;;;12.20;9.73;;;16.60;67.50;;;;;;5033837;28;20249;-70
2023/09/14 03:41:13;;;;;;;11.17;10.03;;;16.70;68.10;;;;;;5033726;28;20186;-70
2023/09/14 03:43:40;;;;;;;14.37;10.23;;;16.80;67.60;;;;;;5033739;28;20215;-69
2023/09/14 03:46:06;;;;;;;15.60;11.50;;;16.70;66.90;;;;;;5033788;28;20172;-69
2023/09/14 03:48:31;;;;;;;12.47;9.10;;;16.70;67.50;;;;;;5033762;28;20799;-69
2023/09/14 03:50:59;;;;;;;12.43;10.90;;;16.70;65.80;;;;;;5033484;28;20244;-69
2023/09/14 03:53:25;;;;;;;15.27;10.70;;;16.60;66.40;;;;;;5033280;28;20654;-69
2023/09/14 03:55:52;;;;;;;17.60;11.00;;;16.70;67.50;;;;;;5033700;28;20504;-70
2023/09/14 03:58:17;;;;;;;14.00;10.83;;;16.60;66.20;;;;;;5033401;28;21051;-69
2023/09/14 04:00:44;;;;;;;13.80;10.70;;;16.60;67.40;;;;;;5032253;28;20503;-69
2023/09/14 04:03:10;;;;;;;14.10;10.80;;;16.60;67.40;;;;;;5033322;28;20210;-71
2023/09/14 04:05:36;;;;;;;15.73;13.40;;;16.70;67.50;;;;;;5032149;28;20449;-72
2023/09/14 04:08:02;;;;;;;16.10;10.37;;;16.70;67.30;;;;;;5033302;28;20430;-71
2023/09/14 04:10:27;;;;;;;13.07;10.40;;;16.60;67.50;;;;;;5032924;28;20187;-71
2023/09/14 04:13:17;;;;;;;13.77;10.60;;;16.60;68.00;;;;;;5032860;28;20216;-71
2023/09/14 04:15:43;;;;;;;15.47;12.40;;;16.60;66.40;;;;;;5033174;28;20233;-73
2023/09/14 04:18:08;;;;;;;11.60;9.60;;;16.50;64.60;;;;;;5033389;28;20430;-72
2023/09/14 04:20:34;;;;;;;10.83;9.80;;;16.50;66.50;;;;;;5033244;28;20253;-72
2023/09/14 04:22:59;;;;;;;15.83;12.83;;;16.50;66.20;;;;;;5033056;28;20693;-70
2023/09/14 04:25:25;;;;;;;11.60;10.00;;;16.70;67.30;;;;;;5033200;28;20175;-70
2023/09/14 04:27:50;;;;;;;14.10;10.53;;;16.60;67.30;;;;;;5033417;28;20202;-70
2023/09/14 04:30:16;;;;;;;11.47;9.23;;;16.60;66.30;;;;;;5032779;28;20729;-70
2023/09/14 04:32:42;;;;;;;10.80;9.70;;;16.70;66.70;;;;;;5032501;28;20191;-70
2023/09/14 04:35:08;;;;;;;18.40;11.57;;;16.70;67.50;;;;;;5032817;28;20206;-70
2023/09/14 04:37:33;;;;;;;15.13;12.30;;;16.70;65.60;;;;;;5032964;28;20207;-70
2023/09/14 04:39:59;;;;;;;15.73;11.47;;;16.60;65.40;;;;;;5032642;28;20441;-70
2023/09/14 04:42:24;;;;;;;13.67;11.10;;;16.60;67.50;;;;;;5032898;28;20191;-71
2023/09/14 04:44:51;;;;;;;15.63;13.27;;;16.60;67.50;;;;;;5033163;28;20565;-71
2023/09/14 04:47:17;;;;;;;11.07;9.80;;;16.60;67.50;;;;;;5033414;28;20195;-70
2023/09/14 04:49:42;;;;;;;15.80;12.90;;;16.70;66.50;;;;;;5032896;28;20424;-70
2023/09/14 04:52:08;;;;;;;12.47;11.17;;;16.70;66.30;;;;;;5033058;28;20410;-71
2023/09/14 04:54:33;;;;;;;15.53;11.23;;;16.70;65.90;;;;;;5033305;28;20676;-71
2023/09/14 04:56:59;;;;;;;13.07;10.67;;;16.80;66.20;;;;;;5032747;28;20275;-72
2023/09/14 04:59:24;;;;;;;13.40;11.10;;;16.80;65.40;;;;;;5033375;28;20261;-71
2023/09/14 05:01:50;;;;;;;14.80;11.23;;;16.80;64.80;;;;;;5033419;28;20205;-71
2023/09/14 05:04:16;;;;;;;13.50;10.80;;;16.80;65.20;;;;;;5032295;28;20281;-70
2023/09/14 05:06:41;;;;;;;12.17;10.60;;;16.80;64.90;;;;;;5032959;28;20221;-71
2023/09/14 05:09:07;;;;;;;14.57;10.93;;;16.80;64.70;;;;;;5033050;28;20183;-71
2023/09/14 05:11:32;;;;;;;13.33;11.30;;;16.90;63.30;;;;;;5032787;28;20179;-70
2023/09/14 05:13:58;;;;;;;17.73;9.93;;;16.90;63.10;;;;;;5032716;28;20186;-70
2023/09/14 05:16:23;;;;;;;15.37;11.57;;;16.90;64.20;;;;;;5032775;28;20635;-71
2023/09/14 05:18:49;;;;;;;11.63;10.03;;;16.90;65.30;;;;;;5032784;28;20317;-70
2023/09/14 05:21:14;;;;;;;15.97;11.20;;;16.80;66.60;;;;;;5032537;28;20179;-70
2023/09/14 05:23:40;;;;;;;16.40;11.53;;;16.90;65.40;;;;;;5032686;28;20290;-71
2023/09/14 05:26:05;;;;;;;15.40;12.23;;;17.00;65.10;;;;;;5031717;28;20290;-71
2023/09/14 05:28:31;;;;;;;14.03;11.20;;;16.90;65.80;;;;;;5032421;28;20199;-72
2023/09/14 05:30:56;;;;;;;14.53;12.30;;;16.90;66.10;;;;;;5031519;28;20650;-69
2023/09/14 05:33:22;;;;;;;16.40;12.17;;;17.00;65.80;;;;;;5031526;28;20182;-69
2023/09/14 05:35:49;;;;;;;17.20;11.10;;;17.00;64.60;;;;;;5031248;28;20175;-69
2023/09/14 05:38:15;;;;;;;14.80;10.20;;;17.00;65.50;;;;;;5031415;28;20492;-68
2023/09/14 05:40:40;;;;;;;17.33;11.93;;;17.00;65.10;;;;;;5031637;28;20794;-69
2023/09/14 05:43:06;;;;;;;16.57;12.23;;;17.00;65.30;;;;;;5031290;28;20457;-70
2023/09/14 05:45:31;;;;;;;18.13;14.10;;;17.00;64.00;;;;;;5031312;28;20183;-69
2023/09/14 05:47:57;;;;;;;15.70;12.20;;;17.10;64.50;;;;;;5030053;28;20210;-69
2023/09/14 05:50:22;;;;;;;18.60;13.10;;;17.00;62.60;;;;;;5031493;28;20168;-70
2023/09/14 05:52:48;;;;;;;13.43;10.80;;;17.10;62.20;;;;;;5031055;28;20175;-71
2023/09/14 05:55:14;;;;;;;17.83;12.90;;;17.10;60.70;;;;;;5031424;28;20206;-70
2023/09/14 05:57:39;;;;;;;15.43;11.43;;;17.10;60.80;;;;;;5031274;28;20297;-70
2023/09/14 06:00:12;;;;;;;16.10;13.27;;;17.10;60.90;;;;;;5031188;28;20651;-72
2023/09/14 06:02:38;;;;;;;12.43;10.27;;;17.20;61.30;;;;;;5030920;28;20612;-72
2023/09/14 06:05:04;;;;;;;18.63;12.97;;;17.20;59.90;;;;;;5030893;28;20429;-72
2023/09/14 06:07:30;;;;;;;14.90;12.00;;;17.30;59.40;;;;;;5031116;28;20446;-74
2023/09/14 06:09:55;;;;;;;15.90;11.53;;;17.50;59.10;;;;;;5031144;28;20488;-73
2023/09/14 06:12:21;;;;;;;14.60;10.83;;;17.60;57.30;;;;;;5030996;28;20225;-73
2023/09/14 06:14:46;;;;;;;12.00;10.40;;;17.60;55.00;;;;;;5031365;28;20643;-72
2023/09/14 06:17:12;;;;;;;10.77;9.67;;;17.80;54.40;;;;;;5035194;28;20195;-74
2023/09/14 06:19:37;;;;;;;14.63;10.73;;;18.10;51.80;;;;;;5035318;28;20202;-73
2023/09/14 06:22:03;;;;;;;13.10;11.07;;;18.30;50.40;;;;;;5034885;28;20179;-73
2023/09/14 06:24:29;;;;;;;13.50;10.20;;;18.50;47.70;;;;;;5034820;28;20215;-72
2023/09/14 06:26:55;;;;;;;11.47;9.33;;;18.70;45.20;;;;;;5034589;28;20255;-71
2023/09/14 06:29:20;;;;;;;13.37;11.23;;;18.70;42.20;;;;;;5034223;28;20218;-72
2023/09/14 06:31:46;;;;;;;11.67;8.40;;;18.80;42.60;;;;;;5034795;28;20414;-73
2023/09/14 06:34:11;;;;;;;10.40;8.47;;;18.90;42.00;;;;;;5034961;28;20552;-72
2023/09/14 06:36:40;;;;;;;10.20;9.03;;;18.90;41.40;;;;;;5034960;28;20269;-71
2023/09/14 06:39:05;;;;;;;13.10;9.27;;;18.80;41.60;;;;;;5034814;28;20198;-71
2023/09/14 06:41:31;;;;;;;13.73;10.10;;;18.80;42.60;;;;;;5034507;28;20417;-71
2023/09/14 06:43:57;;;;;;;13.77;10.13;;;18.60;42.80;;;;;;5034674;28;20213;-71
2023/09/14 06:46:22;;;;;;;16.03;9.90;;;18.20;45.80;;;;;;5034738;28;20267;-71
2023/09/14 06:48:48;;;;;;;13.17;10.70;;;18.10;49.30;;;;;;5034705;28;20234;-71
2023/09/14 06:51:13;;;;;;;11.60;9.93;;;18.10;48.70;;;;;;5034367;28;20175;-71
2023/09/14 06:53:38;;;;;;;12.50;10.30;;;18.10;49.30;;;;;;5034398;28;20233;-71
2023/09/14 06:56:09;;;;;;;14.60;10.77;;;18.00;48.40;;;;;;5034035;28;20527;-71
2023/09/14 06:58:34;;;;;;;17.43;10.63;;;18.00;48.40;;;;;;5034213;28;20218;-71
2023/09/14 07:01:04;;;;;;;15.50;12.53;;;18.00;48.50;;;;;;5034177;28;20426;-71
2023/09/14 07:03:31;;;;;;;13.03;11.67;;;18.00;49.50;;;;;;5034253;28;20214;-74
2023/09/14 07:05:57;;;;;;;13.50;11.63;;;18.10;49.90;;;;;;5033946;28;20441;-72
2023/09/14 07:08:22;;;;;;;11.13;9.00;;;18.00;49.90;;;;;;5033764;28;20453;-70
2023/09/14 07:10:48;;;;;;;12.70;10.43;;;18.10;50.90;;;;;;5034613;28;20254;-70
2023/09/14 07:13:14;;;;;;;13.53;8.67;;;18.10;50.10;;;;;;5034612;28;20546;-70
2023/09/14 07:15:40;;;;;;;14.40;10.20;;;18.20;49.60;;;;;;5033786;28;20421;-70
2023/09/14 07:18:05;;;;;;;17.93;11.27;;;18.20;48.50;;;;;;5029735;28;20449;-69
2023/09/14 07:20:31;;;;;;;12.70;10.37;;;18.00;47.70;;;;;;5031538;28;20270;-70
2023/09/14 07:22:57;;;;;;;11.40;9.60;;;17.90;48.40;;;;;;5030129;28;20302;-69
2023/09/14 07:25:28;;;;;;;13.70;11.20;;;17.90;49.40;;;;;;5027389;28;20202;-69
2023/09/14 07:27:53;;;;;;;11.97;10.43;;;18.00;49.60;;;;;;5026291;28;20545;-69
2023/09/14 07:30:19;;;;;;;13.07;10.20;;;18.20;47.20;;;;;;5029448;28;20975;-69
2023/09/14 07:32:44;;;;;;;10.40;8.70;;;18.20;45.20;;;;;;5029348;28;20191;-69
2023/09/14 07:35:11;;;;;;;13.37;10.47;;;18.40;46.40;;;;;;5028361;28;20187;-68
2023/09/14 07:37:37;;;;;;;15.33;10.80;;;18.60;42.80;;;;;;5028760;28;20292;-69
2023/09/14 07:40:04;;;;;;;14.37;9.80;;;18.60;41.90;;;;;;5029399;28;20465;-70
2023/09/14 07:42:29;;;;;;;15.60;9.63;;;18.70;40.60;;;;;;5029356;28;20666;-69
2023/09/14 07:44:55;;;;;;;10.33;9.20;;;18.80;41.00;;;;;;5030296;28;20542;-69
2023/09/14 07:47:28;;;;;;;12.23;8.80;;;18.90;40.90;;;;;;5012229;28;20659;-69
2023/09/14 07:49:57;;;;;;;12.57;11.00;;;18.90;37.90;;;;;;5003075;28;20198;-69
2023/09/14 07:52:23;;;;;;;9.50;7.60;;;18.90;38.00;;;;;;5012054;28;20817;-68
2023/09/14 07:54:48;;;;;;;14.97;9.20;;;19.00;38.90;;;;;;5029675;28;20422;-69
2023/09/14 07:57:14;;;;;;;10.60;8.73;;;19.20;37.00;;;;;;5049795;23;20643;-70
2023/09/14 07:59:39;;;;;;;11.67;8.50;;;19.30;35.70;;;;;;5029998;28;20196;-71
2023/09/14 08:02:07;;;;;;;10.70;8.53;;;19.40;34.20;;;;;;5024633;28;20183;-71
2023/09/14 08:04:33;;;;;;;10.87;9.73;;;19.50;35.00;;;;;;5021159;28;20203;-74
2023/09/14 08:06:58;;;;;;;11.90;9.33;;;19.70;34.80;;;;;;5032022;28;20488;-69
2023/09/14 08:09:24;;;;;;;14.63;9.13;;;19.90;32.70;;;;;;5033754;28;20218;-70
2023/09/14 08:11:50;;;;;;;10.23;8.97;;;19.90;32.00;;;;;;5033376;28;20581;-70
2023/09/14 08:14:15;;;;;;;10.73;9.63;;;20.00;29.60;;;;;;5030377;28;20207;-70
2023/09/14 08:16:41;;;;;;;11.87;9.20;;;20.50;28.90;;;;;;5033021;28;20433;-69
2023/09/14 08:19:06;;;;;;;8.27;7.23;;;20.80;27.20;;;;;;5043015;28;20240;-70
2023/09/14 08:21:32;;;;;;;13.10;8.30;;;21.10;25.80;;;;;;5043459;28;20493;-70
2023/09/14 08:23:57;;;;;;;13.80;8.73;;;21.30;24.40;;;;;;5043155;28;20271;-70
2023/09/14 08:26:23;;;;;;;13.80;9.40;;;21.40;23.70;;;;;;5051924;28;20171;-70
2023/09/14 08:28:49;;;;;;;12.20;7.80;;;21.50;23.40;;;;;;5053050;28;20571;-70
2023/09/14 08:31:14;;;;;;;9.97;8.27;;;21.20;24.60;;;;;;5053403;28;20175;-70
2023/09/14 08:33:40;;;;;;;11.67;8.57;;;21.40;22.80;;;;;;5045972;28;20219;-70
2023/09/14 08:36:06;;;;;;;10.37;8.07;;;21.50;22.40;;;;;;5033509;28;20262;-70
2023/09/14 08:38:31;;;;;;;9.83;8.80;;;21.40;21.60;;;;;;5038616;28;20468;-70
2023/09/14 08:41:00;;;;;;;11.03;8.63;;;21.60;20.60;;;;;;5052874;28;20605;-70
2023/09/14 08:43:27;;;;;;;8.37;7.40;;;21.60;21.80;;;;;;5053203;28;20304;-70
2023/09/14 08:45:53;;;;;;;11.83;8.90;;;21.60;20.90;;;;;;5051937;28;20427;-69
2023/09/14 08:48:23;;;;;;;9.23;7.70;;;21.40;20.00;;;;;;5052340;28;20643;-78
2023/09/14 08:50:49;;;;;;;10.73;8.33;;;21.50;20.70;;;;;;5051949;28;20413;-70
2023/09/14 08:53:16;;;;;;;11.43;8.43;;;21.70;19.50;;;;;;5037823;28;20516;-69
2023/09/14 08:55:43;;;;;;;12.83;9.50;;;21.80;18.60;;;;;;5032978;28;20932;-70
2023/09/14 08:58:10;;;;;;;9.27;8.47;;;22.10;18.20;;;;;;5031909;28;20468;-69
2023/09/14 09:00:37;;;;;;;11.20;7.53;;;22.50;18.30;;;;;;5032549;28;20418;-70
2023/09/14 09:03:03;;;;;;;9.03;7.97;;;22.70;17.20;;;;;;5032662;28;20461;-69
2023/09/14 09:05:28;;;;;;;8.60;7.80;;;22.70;16.40;;;;;;5032844;28;20856;-70
2023/09/14 09:07:56;;;;;;;9.53;8.33;;;22.60;15.60;;;;;;5032907;28;20195;-69
2023/09/14 09:10:24;;;;;;;13.13;8.50;;;22.50;14.90;;;;;;5032891;28;20175;-69
2023/09/14 09:12:57;;;;;;;8.70;7.80;;;22.60;13.90;;;;;;5032935;28;20418;-69
2023/09/14 09:15:24;;;;;;;10.60;7.67;;;22.50;13.60;;;;;;5032920;28;20418;-69
2023/09/14 09:17:54;;;;;;;10.13;9.13;;;22.60;12.80;;;;;;5032609;28;20438;-69
2023/09/14 09:20:23;;;;;;;11.53;10.33;;;22.50;16.50;;;;;;5032421;28;20943;-69
2023/09/14 09:22:51;;;;;;;12.87;8.13;;;22.10;17.40;;;;;;5032431;28;20450;-69
2023/09/14 09:25:17;;;;;;;9.20;8.20;;;22.10;18.00;;;;;;5032582;28;20406;-69
2023/09/14 09:27:43;;;;;;;11.17;9.73;;;22.20;17.30;;;;;;5032333;28;20431;-69
2023/09/14 09:30:10;;;;;;;10.90;9.40;;;22.10;17.70;;;;;;5032511;28;20410;-69
2023/09/14 09:32:41;;;;;;;8.80;7.90;;;22.40;18.10;;;;;;5032160;28;20418;-69
2023/09/14 09:35:18;;;;;;;9.83;7.73;;;22.30;16.70;;;;;;5032406;28;20409;-70
2023/09/14 09:37:44;;;;;;;8.80;7.20;;;22.50;16.30;;;;;;5031018;28;20911;-69
2023/09/14 09:40:19;;;;;;;8.30;7.43;;;22.70;14.50;;;;;;5032262;28;20472;-69
2023/09/14 09:42:45;;;;;;;8.77;7.87;;;22.40;15.30;;;;;;5031908;28;20206;-69
2023/09/14 09:45:12;;;;;;;8.93;7.37;;;22.30;15.00;;;;;;5032339;28;20406;-69
2023/09/14 09:47:39;;;;;;;8.93;7.97;;;22.50;16.00;;;;;;5032230;28;20433;-69
2023/09/14 09:50:15;;;;;;;8.53;7.70;;;22.70;14.60;;;;;;5031706;28;20908;-69
2023/09/14 09:52:43;;;;;;;9.70;8.70;;;22.50;15.40;;;;;;5031373;28;20406;-72
2023/09/14 09:55:21;;;;;;;7.80;6.87;;;22.20;15.80;;;;;;5031415;28;20420;-70
2023/09/14 09:57:52;;;;;;;10.00;7.90;;;22.20;16.10;;;;;;5031902;28;20453;-70
2023/09/14 10:00:19;;;;;;;7.33;6.60;;;22.00;16.10;;;;;;5032236;28;20905;-70
2023/09/14 10:02:47;;;;;;;10.43;8.50;;;21.90;17.40;;;;;;5031394;28;20974;-70
2023/09/14 10:05:12;;;;;;;9.80;7.30;;;21.90;16.30;;;;;;5031277;28;20425;-70
2023/09/14 10:07:41;;;;;;;8.63;7.80;;;21.60;17.10;;;;;;5040395;28;20450;-70
2023/09/14 10:10:10;;;;;;;8.30;6.80;;;21.50;17.60;;;;;;5026913;28;20232;-70
2023/09/14 10:12:39;;;;;;;11.27;5.80;;;21.70;15.80;;;;;;5025922;28;20422;-70
2023/09/14 10:15:06;;;;;;;12.03;6.43;;;21.90;15.90;;;;;;5029914;28;20427;-70
2023/09/14 10:17:32;;;;;;;12.13;6.90;;;22.10;14.80;;;;;;5032161;28;20434;-70
2023/09/14 10:20:05;;;;;;;6.10;5.50;;;21.70;16.00;;;;;;5032070;28;20424;-70
2023/09/14 10:22:32;;;;;;;8.10;7.00;;;21.60;18.00;;;;;;5031203;28;20168;-70
2023/09/14 10:24:58;;;;;;;8.00;7.20;;;21.50;16.40;;;;;;5031283;28;20422;-70
2023/09/14 10:27:27;;;;;;;8.20;6.20;;;21.50;17.00;;;;;;5046879;28;20430;-70
2023/09/14 10:29:58;;;;;;;7.70;6.37;;;21.40;17.10;;;;;;5031491;28;20417;-70
2023/09/14 10:32:25;;;;;;;6.73;6.03;;;21.30;17.40;;;;;;5022686;28;20493;-70
2023/09/14 10:34:51;;;;;;;9.53;6.70;;;21.30;17.50;;;;;;5012159;28;20418;-70
2023/09/14 10:37:19;;;;;;;7.17;6.40;;;21.60;16.30;;;;;;5016819;28;20523;-70
2023/09/14 10:39:45;;;;;;;8.23;6.40;;;21.90;15.30;;;;;;5030900;28;20446;-70
2023/09/14 10:42:11;;;;;;;7.53;6.83;;;22.00;15.30;;;;;;5031164;28;20425;-70
2023/09/14 10:44:37;;;;;;;8.23;6.13;;;22.20;14.10;;;;;;5031211;28;20457;-70
2023/09/14 10:47:05;;;;;;;7.70;6.80;;;22.10;14.50;;;;;;5031114;28;20167;-70
2023/09/14 10:49:35;;;;;;;8.03;6.20;;;21.90;14.70;;;;;;5024099;28;20968;-71
2023/09/14 10:52:01;;;;;;;6.13;5.57;;;21.70;15.90;;;;;;5029384;28;20521;-68
2023/09/14 10:54:31;;;;;;;7.13;6.40;;;21.70;15.90;;;;;;5031078;28;20426;-69
2023/09/14 10:56:59;;;;;;;6.30;5.50;;;21.70;14.50;;;;;;5031020;28;20419;-68
2023/09/14 10:59:53;;;;;;;7.30;6.17;;;21.70;15.60;;;;;;5030843;28;20426;-69
2023/09/14 11:02:42;;;;;;;9.37;6.60;;;21.70;15.10;;;;;;5031961;28;20415;-69
2023/09/14 11:05:23;;;;;;;5.00;4.30;;;21.60;14.80;;;;;;5034708;28;20878;-69
2023/09/14 11:07:58;;;;;;;7.33;6.23;;;21.80;15.60;;;;;;5034479;28;20497;-69
2023/09/14 11:10:24;;;;;;;7.03;5.47;;;21.90;15.30;;;;;;5034719;28;20429;-69
2023/09/14 11:12:50;;;;;;;5.80;5.27;;;21.90;13.20;;;;;;5034244;28;20417;-69
2023/09/14 11:15:17;;;;;;;6.43;4.87;;;21.90;13.40;;;;;;5034429;28;20500;-69
2023/09/14 11:17:44;;;;;;;8.40;6.50;;;21.80;13.30;;;;;;5034264;28;20282;-69
2023/09/14 11:20:25;;;;;;;7.47;5.70;;;21.70;12.80;;;;;;5034233;28;20797;-69
2023/09/14 11:22:52;;;;;;;5.70;5.13;;;21.70;13.30;;;;;;5034440;28;20549;-69
2023/09/14 11:25:30;;;;;;;6.20;5.13;;;22.00;13.60;;;;;;5034307;28;20429;-69
2023/09/14 11:27:56;;;;;;;5.07;4.67;;;22.00;12.50;;;;;;5013090;28;20439;-69
2023/09/14 11:30:24;;;;;;;7.10;5.93;;;21.90;14.00;;;;;;5026263;28;20428;-69
2023/09/14 11:32:54;;;;;;;6.40;5.77;;;22.10;13.50;;;;;;5033918;28;20464;-69
2023/09/14 11:35:53;;;;;;;6.80;6.10;;;22.30;12.90;;;;;;5034088;28;20410;-69
2023/09/14 11:38:22;;;;;;;5.87;5.27;;;22.30;10.70;;;;;;5032573;28;20529;-69
2023/09/14 11:40:47;;;;;;;6.63;6.03;;;22.40;12.50;;;;;;5032317;28;20464;-69
2023/09/14 11:43:22;;;;;;;5.90;5.37;;;22.40;11.70;;;;;;5033867;28;20469;-69
2023/09/14 11:45:56;;;;;;;5.50;4.83;;;22.30;10.50;;;;;;5034120;28;20177;-70
2023/09/14 11:48:23;;;;;;;6.60;5.83;;;22.40;11.10;;;;;;5032474;28;20854;-70
2023/09/14 11:50:50;;;;;;;5.80;5.30;;;22.30;9.30;;;;;;5033601;28;20432;-70
2023/09/14 11:53:21;;;;;;;6.57;5.97;;;22.30;9.40;;;;;;5033518;28;20410;-70
2023/09/14 11:55:51;;;;;;;5.10;4.60;;;22.30;9.40;;;;;;5033813;28;20406;-70
2023/09/14 11:58:17;;;;;;;5.57;5.07;;;22.40;9.30;;;;;;5034944;28;20480;-71
2023/09/14 12:00:47;;;;;;;7.07;6.37;;;22.60;10.20;;;;;;5033582;28;20472;-69
2023/09/14 12:03:13;;;;;;;5.60;5.20;;;22.70;9.30;;;;;;5033485;28;20452;-69
2023/09/14 12:05:38;;;;;;;5.80;5.20;;;22.70;9.70;;;;;;5033818;28;20505;-69
2023/09/14 12:08:11;;;;;;;6.10;5.50;;;22.70;8.80;;;;;;5033774;28;20521;-69
2023/09/14 12:10:37;;;;;;;6.00;5.40;;;22.80;9.00;;;;;;5033469;28;20229;-69
2023/09/14 12:13:17;;;;;;;5.43;5.03;;;22.90;8.30;;;;;;5032117;28;20474;-69
2023/09/14 12:15:44;;;;;;;5.77;5.10;;;23.00;7.70;;;;;;5034217;28;20413;-70
2023/09/14 12:18:11;;;;;;;5.67;5.27;;;23.00;6.20;;;;;;5034108;28;20434;-69
2023/09/14 12:20:41;;;;;;;5.57;5.17;;;23.00;6.00;;;;;;5032723;28;20430;-69
2023/09/14 12:23:09;;;;;;;5.97;5.57;;;22.90;5.70;;;;;;5034280;28;20515;-69
2023/09/14 12:25:36;;;;;;;6.53;6.03;;;22.90;4.30;;;;;;5033722;28;20940;-69
2023/09/14 12:28:04;;;;;;;6.70;5.93;;;23.00;3.00;;;;;;5033781;28;20911;-69
2023/09/14 12:30:30;;;;;;;5.97;5.57;;;23.10;3.40;;;;;;5033335;28;20440;-69
2023/09/14 12:33:00;;;;;;;5.97;5.67;;;23.30;4.60;;;;;;5032256;28;20426;-69
2023/09/14 12:35:28;;;;;;;6.23;5.83;;;23.50;3.60;;;;;;5033894;28;20433;-69
2023/09/14 12:38:03;;;;;;;6.80;6.27;;;23.60;4.50;;;;;;5033927;28;20430;-70